Check out our new PWSWeather beta!
PWSweather.com
Personal Weather Stations
Station Observations
OINOFYTA
Oinofyta Greece, OinofytaGR 320 11

Oinofyta GreeceOinofytaGR 320 11

Lat: 38.3080648, Lon: 23.6391172

Elevation: 354

Station Type: ProWeatherStation 1080

https://oinofytaweather.gr/

High Low Average
Temperature 68.0°F20.0°C 53.6°F12.0°C 61.3°F16.3°C
Dew Point 57.1°F13.9°C 48.6°F9.2°C 52.5°F11.4°C
Winds 8.0 mph 12.9 kmh Calm Calm 3.0 mph SSW4.8 kmh SSW
Wind Gusts 27.3 mph43.9 kmh -- 11.0 mph17.7 kmh
Humidity 86% 52% 73%
Pressure 29.93 in1013.5 mb 29.78 in1008.5 mb -
Precipitation 0.00 in0.0 mm - -
Hour Temp Dew Point Humidity Winds Wind Gusts Pressure Precip Precip Rate Daily Precip Total
12:00 AM 55.8°F13.2°C 49.0°F9.4°C 78% 1.1 mph SW1.8 kmh SW 6.0 mph9.7 kmh 29.93 in1013.5 mb 0.00 in0.0 mm 0.00 in0.0 mm 0.00 in0.0 mm
12:05 AM 56.1°F13.4°C 49.4°F9.7°C 78% 1.8 mph SSW2.9 kmh SSW 10.7 mph17.2 kmh 29.93 in1013.5 mb 0.00 in0.0 mm 0.00 in0.0 mm 0.00 in0.0 mm
12:10 AM 56.8°F13.8°C 49.4°F9.7°C 76% 2.6 mph SSW4.2 kmh SSW 10.7 mph17.2 kmh 29.93 in1013.5 mb 0.00 in0.0 mm 0.00 in0.0 mm 0.00 in0.0 mm
12:15 AM 56.5°F13.6°C 49.4°F9.7°C 77% 2.4 mph SW3.9 kmh SW 7.6 mph12.2 kmh 29.93 in1013.5 mb 0.00 in0.0 mm 0.00 in0.0 mm 0.00 in0.0 mm
12:20 AM 56.3°F13.5°C 49.5°F9.7°C 78% 2.3 mph W3.7 kmh W 6.9 mph11.1 kmh 29.93 in1013.5 mb 0.00 in0.0 mm 0.00 in0.0 mm 0.00 in0.0 mm
12:25 AM 56.1°F13.4°C 49.4°F9.7°C 78% 2.5 mph WSW4.0 kmh WSW 6.9 mph11.1 kmh 29.93 in1013.5 mb 0.00 in0.0 mm 0.00 in0.0 mm 0.00 in0.0 mm
12:30 AM 56.3°F13.5°C 49.5°F9.7°C 78% 2.6 mph WSW4.2 kmh WSW 7.6 mph12.2 kmh 29.93 in1013.5 mb 0.00 in0.0 mm 0.00 in0.0 mm 0.00 in0.0 mm
12:35 AM 56.8°F13.8°C 49.7°F9.8°C 77% 3.1 mph SW5.0 kmh SW 9.2 mph14.8 kmh 29.93 in1013.5 mb 0.00 in0.0 mm 0.00 in0.0 mm 0.00 in0.0 mm
12:40 AM 57.4°F14.1°C 49.5°F9.7°C 75% 2.7 mph SW4.3 kmh SW 9.2 mph14.8 kmh 29.93 in1013.5 mb 0.00 in0.0 mm 0.00 in0.0 mm 0.00 in0.0 mm
12:45 AM 57.2°F14.0°C 49.7°F9.8°C 76% 2.3 mph WSW3.7 kmh WSW 7.6 mph12.2 kmh 29.93 in1013.5 mb 0.00 in0.0 mm 0.00 in0.0 mm 0.00 in0.0 mm
12:50 AM 57.0°F13.9°C 49.5°F9.7°C 76% 2.8 mph WSW4.5 kmh WSW 6.9 mph11.1 kmh 29.93 in1013.5 mb 0.00 in0.0 mm 0.00 in0.0 mm 0.00 in0.0 mm
12:55 AM 56.8°F13.8°C 49.7°F9.8°C 77% 2.5 mph WSW4.0 kmh WSW 6.0 mph9.7 kmh 29.93 in1013.5 mb 0.00 in0.0 mm 0.00 in0.0 mm 0.00 in0.0 mm
01:00 AM 56.8°F13.8°C 49.7°F9.8°C 77% 2.5 mph W4.0 kmh W 7.6 mph12.2 kmh 29.93 in1013.5 mb 0.00 in0.0 mm 0.00 in0.0 mm 0.00 in0.0 mm
01:05 AM 56.7°F13.7°C 49.9°F9.9°C 78% 1.8 mph WSW2.9 kmh WSW 7.6 mph12.2 kmh 29.93 in1013.5 mb 0.00 in0.0 mm 0.00 in0.0 mm 0.00 in0.0 mm
01:10 AM 56.5°F13.6°C 49.7°F9.8°C 78% 1.2 mph WSW1.9 kmh WSW 5.4 mph8.7 kmh 29.93 in1013.5 mb 0.00 in0.0 mm 0.00 in0.0 mm 0.00 in0.0 mm
01:15 AM 56.7°F13.7°C 49.5°F9.7°C 77% 1.3 mph WSW2.1 kmh WSW 5.4 mph8.7 kmh 29.93 in1013.5 mb 0.00 in0.0 mm 0.00 in0.0 mm 0.00 in0.0 mm
01:20 AM 56.5°F13.6°C 49.7°F9.8°C 78% 1.0 mph SW1.6 kmh SW 4.5 mph7.2 kmh 29.92 in1013.2 mb 0.00 in0.0 mm 0.00 in0.0 mm 0.00 in0.0 mm
01:25 AM 56.3°F13.5°C 49.5°F9.7°C 78% 1.2 mph SW1.9 kmh SW 5.4 mph8.7 kmh 29.93 in1013.5 mb 0.00 in0.0 mm 0.00 in0.0 mm 0.00 in0.0 mm
01:30 AM 56.3°F13.5°C 49.5°F9.7°C 78% 1.7 mph SW2.7 kmh SW 6.0 mph9.7 kmh 29.92 in1013.2 mb 0.00 in0.0 mm 0.00 in0.0 mm 0.00 in0.0 mm
01:35 AM 55.9°F13.3°C 49.2°F9.6°C 78% 1.4 mph SW2.3 kmh SW 6.0 mph9.7 kmh 29.92 in1013.2 mb 0.00 in0.0 mm 0.00 in0.0 mm 0.00 in0.0 mm
01:40 AM 55.9°F13.3°C 49.5°F9.7°C 79% 1.1 mph SSW1.8 kmh SSW 5.4 mph8.7 kmh 29.92 in1013.2 mb 0.00 in0.0 mm 0.00 in0.0 mm 0.00 in0.0 mm
01:45 AM 56.1°F13.4°C 49.7°F9.8°C 79% 1.4 mph S2.3 kmh S 5.4 mph8.7 kmh 29.92 in1013.2 mb 0.00 in0.0 mm 0.00 in0.0 mm 0.00 in0.0 mm
01:50 AM 56.1°F13.4°C 49.7°F9.8°C 79% 1.2 mph SSE1.9 kmh SSE 5.4 mph8.7 kmh 29.92 in1013.2 mb 0.00 in0.0 mm 0.00 in0.0 mm 0.00 in0.0 mm
01:55 AM 56.3°F13.5°C 49.9°F9.9°C 79% 1.2 mph S1.9 kmh S 5.4 mph8.7 kmh 29.93 in1013.5 mb 0.00 in0.0 mm 0.00 in0.0 mm 0.00 in0.0 mm
02:00 AM 56.5°F13.6°C 50.4°F10.2°C 80% 1.2 mph S1.9 kmh S 5.4 mph8.7 kmh 29.93 in1013.5 mb 0.00 in0.0 mm 0.00 in0.0 mm 0.00 in0.0 mm
02:05 AM 56.7°F13.7°C 50.6°F10.3°C 80% 0.8 mph S1.3 kmh S 5.4 mph8.7 kmh 29.92 in1013.2 mb 0.00 in0.0 mm 0.00 in0.0 mm 0.00 in0.0 mm
02:10 AM 57.0°F13.9°C 50.9°F10.5°C 80% 1.1 mph SSW1.8 kmh SSW 4.5 mph7.2 kmh 29.92 in1013.2 mb 0.00 in0.0 mm 0.00 in0.0 mm 0.00 in0.0 mm
02:15 AM 57.0°F13.9°C 50.6°F10.3°C 79% 0.8 mph SSW1.3 kmh SSW 4.5 mph7.2 kmh 29.92 in1013.2 mb 0.00 in0.0 mm 0.00 in0.0 mm 0.00 in0.0 mm
02:20 AM 57.0°F13.9°C 50.9°F10.5°C 80% 1.1 mph S1.8 kmh S 9.2 mph14.8 kmh 29.92 in1013.2 mb 0.00 in0.0 mm 0.00 in0.0 mm 0.00 in0.0 mm
02:25 AM 57.9°F14.4°C 51.5°F10.8°C 79% 1.9 mph S3.1 kmh S 9.2 mph14.8 kmh 29.92 in1013.2 mb 0.00 in0.0 mm 0.00 in0.0 mm 0.00 in0.0 mm
02:30 AM 58.3°F14.6°C 51.5°F10.8°C 78% 1.9 mph S3.1 kmh S 6.9 mph11.1 kmh 29.92 in1013.2 mb 0.00 in0.0 mm 0.00 in0.0 mm 0.00 in0.0 mm
02:35 AM 58.3°F14.6°C 51.5°F10.8°C 78% 1.7 mph SSE2.7 kmh SSE 5.4 mph8.7 kmh 29.92 in1013.2 mb 0.00 in0.0 mm 0.00 in0.0 mm 0.00 in0.0 mm
02:40 AM 58.1°F14.5°C 51.3°F10.7°C 78% 1.1 mph S1.8 kmh S 3.8 mph6.1 kmh 29.93 in1013.5 mb 0.00 in0.0 mm 0.00 in0.0 mm 0.00 in0.0 mm
02:45 AM 57.7°F14.3°C 50.9°F10.5°C 78% 0.6 mph SSW1.0 kmh SSW 3.8 mph6.1 kmh 29.92 in1013.2 mb 0.00 in0.0 mm 0.00 in0.0 mm 0.00 in0.0 mm
02:50 AM 57.7°F14.3°C 50.9°F10.5°C 78% 0.7 mph SW1.1 kmh SW 3.8 mph6.1 kmh 29.92 in1013.2 mb 0.00 in0.0 mm 0.00 in0.0 mm 0.00 in0.0 mm
02:55 AM 57.4°F14.1°C 50.2°F10.1°C 77% 0.8 mph SW1.3 kmh SW 3.8 mph6.1 kmh 29.92 in1013.2 mb 0.00 in0.0 mm 0.00 in0.0 mm 0.00 in0.0 mm
03:00 AM 57.0°F13.9°C 49.9°F9.9°C 77% 0.8 mph SSW1.3 kmh SSW 4.5 mph7.2 kmh 29.91 in1012.9 mb 0.00 in0.0 mm 0.00 in0.0 mm 0.00 in0.0 mm
03:05 AM 57.4°F14.1°C 49.9°F9.9°C 76% 1.3 mph S2.1 kmh S 5.4 mph8.7 kmh 29.91 in1012.9 mb 0.00 in0.0 mm 0.00 in0.0 mm 0.00 in0.0 mm
03:10 AM 57.6°F14.2°C 49.7°F9.8°C 75% 1.1 mph S1.8 kmh S 5.4 mph8.7 kmh 29.92 in1013.2 mb 0.00 in0.0 mm 0.00 in0.0 mm 0.00 in0.0 mm
03:15 AM 57.6°F14.2°C 49.7°F9.8°C 75% 0.7 mph SSE1.1 kmh SSE 3.8 mph6.1 kmh 29.91 in1012.9 mb 0.00 in0.0 mm 0.00 in0.0 mm 0.00 in0.0 mm
03:20 AM 57.4°F14.1°C 49.5°F9.7°C 75% 0.6 mph S1.0 kmh S 3.1 mph5.0 kmh 29.91 in1012.9 mb 0.00 in0.0 mm 0.00 in0.0 mm 0.00 in0.0 mm
03:25 AM 56.7°F13.7°C 49.2°F9.6°C 76% 0.2 mph SSE0.3 kmh SSE 2.2 mph3.5 kmh 29.91 in1012.9 mb 0.00 in0.0 mm 0.00 in0.0 mm 0.00 in0.0 mm
03:30 AM 56.3°F13.5°C 48.8°F9.3°C 76% 0.2 mph SW0.3 kmh SW 3.1 mph5.0 kmh 29.92 in1013.2 mb 0.00 in0.0 mm 0.00 in0.0 mm 0.00 in0.0 mm
03:35 AM 55.9°F13.3°C 48.8°F9.3°C 77% 0.2 mph W0.3 kmh W 3.1 mph5.0 kmh 29.92 in1013.2 mb 0.00 in0.0 mm 0.00 in0.0 mm 0.00 in0.0 mm
03:40 AM 55.6°F13.1°C 49.2°F9.6°C 79% Calm Calm 2.2 mph3.5 kmh 29.92 in1013.2 mb 0.00 in0.0 mm 0.00 in0.0 mm 0.00 in0.0 mm
03:45 AM 55.2°F12.9°C 48.8°F9.3°C 79% Calm Calm -- 29.92 in1013.2 mb 0.00 in0.0 mm 0.00 in0.0 mm 0.00 in0.0 mm
03:50 AM 54.7°F12.6°C 49.0°F9.4°C 81% Calm Calm 0.7 mph1.1 kmh 29.91 in1012.9 mb 0.00 in0.0 mm 0.00 in0.0 mm 0.00 in0.0 mm
03:55 AM 54.7°F12.6°C 49.3°F9.6°C 82% Calm Calm 0.7 mph1.1 kmh 29.91 in1012.9 mb 0.00 in0.0 mm 0.00 in0.0 mm 0.00 in0.0 mm
04:00 AM 54.5°F12.5°C 49.1°F9.5°C 82% Calm Calm -- 29.91 in1012.9 mb 0.00 in0.0 mm 0.00 in0.0 mm 0.00 in0.0 mm
04:05 AM 54.7°F12.6°C 49.3°F9.6°C 82% 0.6 mph S1.0 kmh S 3.8 mph6.1 kmh 29.91 in1012.9 mb 0.00 in0.0 mm 0.00 in0.0 mm 0.00 in0.0 mm
04:10 AM 55.4°F13.0°C 49.7°F9.8°C 81% 1.1 mph SSW1.8 kmh SSW 3.8 mph6.1 kmh 29.91 in1012.9 mb 0.00 in0.0 mm 0.00 in0.0 mm 0.00 in0.0 mm
04:15 AM 55.2°F12.9°C 49.5°F9.7°C 81% 0.8 mph SW1.3 kmh SW 3.8 mph6.1 kmh 29.91 in1012.9 mb 0.00 in0.0 mm 0.00 in0.0 mm 0.00 in0.0 mm
04:20 AM 55.2°F12.9°C 49.5°F9.7°C 81% 0.4 mph SW0.6 kmh SW 2.2 mph3.5 kmh 29.91 in1012.9 mb 0.00 in0.0 mm 0.00 in0.0 mm 0.00 in0.0 mm
04:25 AM 55.0°F12.8°C 49.3°F9.6°C 81% 0.2 mph SW0.3 kmh SW 2.2 mph3.5 kmh 29.91 in1012.9 mb 0.00 in0.0 mm 0.00 in0.0 mm 0.00 in0.0 mm
04:30 AM 54.3°F12.4°C 48.6°F9.2°C 81% 0.2 mph WNW0.3 kmh WNW 2.2 mph3.5 kmh 29.91 in1012.9 mb 0.00 in0.0 mm 0.00 in0.0 mm 0.00 in0.0 mm
04:35 AM 53.6°F12.0°C 48.9°F9.4°C 84% 0.2 mph NW0.3 kmh NW 2.2 mph3.5 kmh 29.90 in1012.5 mb 0.00 in0.0 mm 0.00 in0.0 mm 0.00 in0.0 mm
04:40 AM 53.6°F12.0°C 48.9°F9.4°C 84% 0.7 mph NW1.1 kmh NW 6.0 mph9.7 kmh 29.90 in1012.5 mb 0.00 in0.0 mm 0.00 in0.0 mm 0.00 in0.0 mm
04:45 AM 54.5°F12.5°C 50.1°F10.1°C 85% 1.7 mph WNW2.7 kmh WNW 8.3 mph13.4 kmh 29.90 in1012.5 mb 0.00 in0.0 mm 0.00 in0.0 mm 0.00 in0.0 mm
04:50 AM 55.0°F12.8°C 50.0°F10.0°C 83% 1.3 mph WSW2.1 kmh WSW 8.3 mph13.4 kmh 29.91 in1012.9 mb 0.00 in0.0 mm 0.00 in0.0 mm 0.00 in0.0 mm
04:55 AM 55.6°F13.1°C 50.2°F10.1°C 82% 0.9 mph WSW1.4 kmh WSW 4.5 mph7.2 kmh 29.90 in1012.5 mb 0.00 in0.0 mm 0.00 in0.0 mm 0.00 in0.0 mm
05:00 AM 55.9°F13.3°C 49.9°F9.9°C 80% 1.3 mph W2.1 kmh W 4.5 mph7.2 kmh 29.89 in1012.2 mb 0.00 in0.0 mm 0.00 in0.0 mm 0.00 in0.0 mm
05:05 AM 55.6°F13.1°C 49.5°F9.7°C 80% 1.0 mph WNW1.6 kmh WNW 3.1 mph5.0 kmh 29.90 in1012.5 mb 0.00 in0.0 mm 0.00 in0.0 mm 0.00 in0.0 mm
05:10 AM 56.1°F13.4°C 50.0°F10.0°C 80% 0.9 mph WSW1.4 kmh WSW 3.1 mph5.0 kmh 29.90 in1012.5 mb 0.00 in0.0 mm 0.00 in0.0 mm 0.00 in0.0 mm
05:15 AM 56.3°F13.5°C 49.9°F9.9°C 79% 1.1 mph W1.8 kmh W 4.5 mph7.2 kmh 29.89 in1012.2 mb 0.00 in0.0 mm 0.00 in0.0 mm 0.00 in0.0 mm
05:20 AM 55.9°F13.3°C 49.9°F9.9°C 80% 1.0 mph WNW1.6 kmh WNW 4.5 mph7.2 kmh 29.89 in1012.2 mb 0.00 in0.0 mm 0.00 in0.0 mm 0.00 in0.0 mm
05:25 AM 56.1°F13.4°C 50.0°F10.0°C 80% 0.5 mph W0.8 kmh W 3.8 mph6.1 kmh 29.89 in1012.2 mb 0.00 in0.0 mm 0.00 in0.0 mm 0.00 in0.0 mm
05:30 AM 56.1°F13.4°C 50.0°F10.0°C 80% 0.3 mph W0.5 kmh W 3.1 mph5.0 kmh 29.88 in1011.9 mb 0.00 in0.0 mm 0.00 in0.0 mm 0.00 in0.0 mm
05:35 AM 56.3°F13.5°C 49.9°F9.9°C 79% 0.3 mph W0.5 kmh W 2.2 mph3.5 kmh 29.89 in1012.2 mb 0.00 in0.0 mm 0.00 in0.0 mm 0.00 in0.0 mm
05:40 AM 56.3°F13.5°C 49.9°F9.9°C 79% 0.6 mph SW1.0 kmh SW 4.5 mph7.2 kmh 29.89 in1012.2 mb 0.00 in0.0 mm 0.00 in0.0 mm 0.00 in0.0 mm
05:45 AM 56.5°F13.6°C 49.7°F9.8°C 78% 1.0 mph SW1.6 kmh SW 5.4 mph8.7 kmh 29.89 in1012.2 mb 0.00 in0.0 mm 0.00 in0.0 mm 0.00 in0.0 mm
05:50 AM 56.8°F13.8°C 49.7°F9.8°C 77% 1.2 mph SW1.9 kmh SW 5.4 mph8.7 kmh 29.90 in1012.5 mb 0.00 in0.0 mm 0.00 in0.0 mm 0.00 in0.0 mm
05:55 AM 57.4°F14.1°C 49.9°F9.9°C 76% 1.8 mph SW2.9 kmh SW 7.6 mph12.2 kmh 29.90 in1012.5 mb 0.00 in0.0 mm 0.00 in0.0 mm 0.00 in0.0 mm
06:00 AM 57.9°F14.4°C 50.1°F10.1°C 75% 1.7 mph SW2.7 kmh SW 7.6 mph12.2 kmh 29.90 in1012.5 mb 0.00 in0.0 mm 0.00 in0.0 mm 0.00 in0.0 mm
06:05 AM 58.3°F14.6°C 50.0°F10.0°C 74% 1.0 mph SW1.6 kmh SW 4.5 mph7.2 kmh 29.90 in1012.5 mb 0.00 in0.0 mm 0.00 in0.0 mm 0.00 in0.0 mm
06:10 AM 58.5°F14.7°C 49.8°F9.9°C 73% 1.1 mph SW1.8 kmh SW 4.5 mph7.2 kmh 29.90 in1012.5 mb 0.00 in0.0 mm 0.00 in0.0 mm 0.00 in0.0 mm
06:15 AM 58.1°F14.5°C 49.5°F9.7°C 73% 1.5 mph SSW2.4 kmh SSW 5.4 mph8.7 kmh 29.90 in1012.5 mb 0.00 in0.0 mm 0.00 in0.0 mm 0.00 in0.0 mm
06:20 AM 58.1°F14.5°C 49.9°F9.9°C 74% 1.5 mph S2.4 kmh S 5.4 mph8.7 kmh 29.90 in1012.5 mb 0.00 in0.0 mm 0.00 in0.0 mm 0.00 in0.0 mm
06:25 AM 58.1°F14.5°C 49.5°F9.7°C 73% 1.6 mph S2.6 kmh S 6.0 mph9.7 kmh 29.90 in1012.5 mb 0.00 in0.0 mm 0.00 in0.0 mm 0.00 in0.0 mm
06:30 AM 58.5°F14.7°C 49.8°F9.9°C 73% 1.8 mph S2.9 kmh S 6.0 mph9.7 kmh 29.89 in1012.2 mb 0.00 in0.0 mm 0.00 in0.0 mm 0.00 in0.0 mm
06:35 AM 58.5°F14.7°C 49.8°F9.9°C 73% 1.6 mph S2.6 kmh S 6.0 mph9.7 kmh 29.89 in1012.2 mb 0.00 in0.0 mm 0.00 in0.0 mm 0.00 in0.0 mm
06:40 AM 58.3°F14.6°C 49.7°F9.8°C 73% 1.6 mph S2.6 kmh S 5.4 mph8.7 kmh 29.90 in1012.5 mb 0.00 in0.0 mm 0.00 in0.0 mm 0.00 in0.0 mm
06:45 AM 58.3°F14.6°C 50.0°F10.0°C 74% 1.7 mph S2.7 kmh S 5.4 mph8.7 kmh 29.90 in1012.5 mb 0.00 in0.0 mm 0.00 in0.0 mm 0.00 in0.0 mm
06:50 AM 58.6°F14.8°C 50.4°F10.2°C 74% 1.7 mph S2.7 kmh S 5.4 mph8.7 kmh 29.89 in1012.2 mb 0.00 in0.0 mm 0.00 in0.0 mm 0.00 in0.0 mm
06:55 AM 58.5°F14.7°C 50.2°F10.1°C 74% 1.5 mph S2.4 kmh S 4.5 mph7.2 kmh 29.89 in1012.2 mb 0.00 in0.0 mm 0.00 in0.0 mm 0.00 in0.0 mm
07:00 AM 58.5°F14.7°C 50.6°F10.3°C 75% 1.1 mph S1.8 kmh S 5.4 mph8.7 kmh 29.89 in1012.2 mb 0.00 in0.0 mm 0.00 in0.0 mm 0.00 in0.0 mm
07:05 AM 58.6°F14.8°C 50.8°F10.4°C 75% 1.3 mph S2.1 kmh S 5.4 mph8.7 kmh 29.90 in1012.5 mb 0.00 in0.0 mm 0.00 in0.0 mm 0.00 in0.0 mm
07:10 AM 58.6°F14.8°C 50.8°F10.4°C 75% 1.3 mph SSW2.1 kmh SSW 4.5 mph7.2 kmh 29.89 in1012.2 mb 0.00 in0.0 mm 0.00 in0.0 mm 0.00 in0.0 mm
07:15 AM 58.3°F14.6°C 50.8°F10.4°C 76% 0.9 mph SSW1.4 kmh SSW 4.5 mph7.2 kmh 29.90 in1012.5 mb 0.00 in0.0 mm 0.00 in0.0 mm 0.00 in0.0 mm
07:20 AM 58.1°F14.5°C 50.9°F10.5°C 77% 0.5 mph SW0.8 kmh SW 3.1 mph5.0 kmh 29.90 in1012.5 mb 0.00 in0.0 mm 0.00 in0.0 mm 0.00 in0.0 mm
07:25 AM 57.7°F14.3°C 50.6°F10.3°C 77% 0.1 mph SW0.2 kmh SW 3.1 mph5.0 kmh 29.89 in1012.2 mb 0.00 in0.0 mm 0.00 in0.0 mm 0.00 in0.0 mm
07:30 AM 57.7°F14.3°C 50.9°F10.5°C 78% 0.1 mph S0.2 kmh S 1.6 mph2.6 kmh 29.89 in1012.2 mb 0.00 in0.0 mm 0.00 in0.0 mm 0.00 in0.0 mm
07:35 AM 57.7°F14.3°C 50.9°F10.5°C 78% 0.1 mph SSE0.2 kmh SSE 1.6 mph2.6 kmh 29.89 in1012.2 mb 0.00 in0.0 mm 0.00 in0.0 mm 0.00 in0.0 mm
07:40 AM 57.4°F14.1°C 50.9°F10.5°C 79% Calm Calm 1.6 mph2.6 kmh 29.89 in1012.2 mb 0.00 in0.0 mm 0.00 in0.0 mm 0.00 in0.0 mm
07:45 AM 57.6°F14.2°C 51.1°F10.6°C 79% 0.1 mph SW0.2 kmh SW 4.5 mph7.2 kmh 29.89 in1012.2 mb 0.00 in0.0 mm 0.00 in0.0 mm 0.00 in0.0 mm
07:50 AM 57.7°F14.3°C 50.9°F10.5°C 78% 0.1 mph WSW0.2 kmh WSW 4.5 mph7.2 kmh 29.89 in1012.2 mb 0.00 in0.0 mm 0.00 in0.0 mm 0.00 in0.0 mm
07:55 AM 58.3°F14.6°C 51.1°F10.6°C 77% Calm Calm 2.2 mph3.5 kmh 29.89 in1012.2 mb 0.00 in0.0 mm 0.00 in0.0 mm 0.00 in0.0 mm
08:00 AM 58.1°F14.5°C 50.9°F10.5°C 77% 0.1 mph SW0.2 kmh SW 1.6 mph2.6 kmh 29.89 in1012.2 mb 0.00 in0.0 mm 0.00 in0.0 mm 0.00 in0.0 mm
08:05 AM 58.5°F14.7°C 50.9°F10.5°C 76% 0.2 mph SW0.3 kmh SW 3.1 mph5.0 kmh 29.89 in1012.2 mb 0.00 in0.0 mm 0.00 in0.0 mm 0.00 in0.0 mm
08:10 AM 58.3°F14.6°C 50.4°F10.2°C 75% 0.7 mph SW1.1 kmh SW 3.1 mph5.0 kmh 29.89 in1012.2 mb 0.00 in0.0 mm 0.00 in0.0 mm 0.00 in0.0 mm
08:15 AM 57.9°F14.4°C 50.4°F10.2°C 76% 1.1 mph WSW1.8 kmh WSW 6.0 mph9.7 kmh 29.89 in1012.2 mb 0.00 in0.0 mm 0.00 in0.0 mm 0.00 in0.0 mm
08:20 AM 58.1°F14.5°C 50.6°F10.3°C 76% 1.5 mph NW2.4 kmh NW 6.0 mph9.7 kmh 29.89 in1012.2 mb 0.00 in0.0 mm 0.00 in0.0 mm 0.00 in0.0 mm
08:25 AM 58.5°F14.7°C 50.9°F10.5°C 76% 1.6 mph W2.6 kmh W 6.0 mph9.7 kmh 29.89 in1012.2 mb 0.00 in0.0 mm 0.00 in0.0 mm 0.00 in0.0 mm
08:30 AM 59.2°F15.1°C 50.9°F10.5°C 74% 1.1 mph WSW1.8 kmh WSW 3.8 mph6.1 kmh 29.89 in1012.2 mb 0.00 in0.0 mm 0.00 in0.0 mm 0.00 in0.0 mm
08:35 AM 59.4°F15.2°C 51.1°F10.6°C 74% 0.7 mph SSW1.1 kmh SSW 3.8 mph6.1 kmh 29.89 in1012.2 mb 0.00 in0.0 mm 0.00 in0.0 mm 0.00 in0.0 mm
08:40 AM 59.5°F15.3°C 51.3°F10.7°C 74% 0.8 mph S1.3 kmh S 4.5 mph7.2 kmh 29.89 in1012.2 mb 0.00 in0.0 mm 0.00 in0.0 mm 0.00 in0.0 mm
08:45 AM 60.1°F15.6°C 51.4°F10.8°C 73% 1.8 mph WSW2.9 kmh WSW 7.6 mph12.2 kmh 29.89 in1012.2 mb 0.00 in0.0 mm 0.00 in0.0 mm 0.00 in0.0 mm
08:50 AM 60.6°F15.9°C 51.6°F10.9°C 72% 2.6 mph SSW4.2 kmh SSW 8.3 mph13.4 kmh 29.89 in1012.2 mb 0.00 in0.0 mm 0.00 in0.0 mm 0.00 in0.0 mm
08:55 AM 61.0°F16.1°C 51.5°F10.8°C 71% 3.3 mph SSW5.3 kmh SSW 8.3 mph13.4 kmh 29.89 in1012.2 mb 0.00 in0.0 mm 0.00 in0.0 mm 0.00 in0.0 mm
09:00 AM 61.3°F16.3°C 51.5°F10.8°C 70% 3.0 mph SSW4.8 kmh SSW 7.6 mph12.2 kmh 29.89 in1012.2 mb 0.00 in0.0 mm 0.00 in0.0 mm 0.00 in0.0 mm
09:05 AM 61.7°F16.5°C 51.4°F10.8°C 69% 2.5 mph SW4.0 kmh SW 7.6 mph12.2 kmh 29.89 in1012.2 mb 0.00 in0.0 mm 0.00 in0.0 mm 0.00 in0.0 mm
09:10 AM 62.1°F16.7°C 51.4°F10.8°C 68% 2.9 mph SSW4.7 kmh SSW 9.2 mph14.8 kmh 29.89 in1012.2 mb 0.00 in0.0 mm 0.00 in0.0 mm 0.00 in0.0 mm
09:15 AM 62.4°F16.9°C 51.7°F10.9°C 68% 3.1 mph SSW5.0 kmh SSW 9.2 mph14.8 kmh 29.89 in1012.2 mb 0.00 in0.0 mm 0.00 in0.0 mm 0.00 in0.0 mm
09:20 AM 62.8°F17.1°C 51.7°F10.9°C 67% 3.5 mph SW5.6 kmh SW 9.2 mph14.8 kmh 29.89 in1012.2 mb 0.00 in0.0 mm 0.00 in0.0 mm 0.00 in0.0 mm
09:25 AM 63.1°F17.3°C 52.0°F11.1°C 67% 3.5 mph SW5.6 kmh SW 9.2 mph14.8 kmh 29.89 in1012.2 mb 0.00 in0.0 mm 0.00 in0.0 mm 0.00 in0.0 mm
09:30 AM 63.3°F17.4°C 52.2°F11.2°C 67% 2.8 mph SW4.5 kmh SW 9.2 mph14.8 kmh 29.89 in1012.2 mb 0.00 in0.0 mm 0.00 in0.0 mm 0.00 in0.0 mm
09:35 AM 63.5°F17.5°C 52.4°F11.3°C 67% 3.0 mph SW4.8 kmh SW 6.9 mph11.1 kmh 29.89 in1012.2 mb 0.00 in0.0 mm 0.00 in0.0 mm 0.00 in0.0 mm
09:40 AM 63.5°F17.5°C 52.0°F11.1°C 66% 3.3 mph SW5.3 kmh SW 9.8 mph15.8 kmh 29.89 in1012.2 mb 0.00 in0.0 mm 0.00 in0.0 mm 0.00 in0.0 mm
09:45 AM 63.1°F17.3°C 51.6°F10.9°C 66% 3.4 mph SW5.5 kmh SW 9.8 mph15.8 kmh 29.89 in1012.2 mb 0.00 in0.0 mm 0.00 in0.0 mm 0.00 in0.0 mm
09:50 AM 63.0°F17.2°C 51.8°F11.0°C 67% 3.6 mph SW5.8 kmh SW 9.8 mph15.8 kmh 29.89 in1012.2 mb 0.00 in0.0 mm 0.00 in0.0 mm 0.00 in0.0 mm
09:55 AM 62.8°F17.1°C 52.1°F11.2°C 68% 3.4 mph SSW5.5 kmh SSW 9.8 mph15.8 kmh 29.89 in1012.2 mb 0.00 in0.0 mm 0.00 in0.0 mm 0.00 in0.0 mm
10:00 AM 62.6°F17.0°C 51.9°F11.1°C 68% 2.8 mph S4.5 kmh S 7.6 mph12.2 kmh 29.89 in1012.2 mb 0.00 in0.0 mm 0.00 in0.0 mm 0.00 in0.0 mm
10:05 AM 62.6°F17.0°C 51.9°F11.1°C 68% 2.4 mph S3.9 kmh S 6.9 mph11.1 kmh 29.89 in1012.2 mb 0.00 in0.0 mm 0.00 in0.0 mm 0.00 in0.0 mm
10:10 AM 62.8°F17.1°C 51.7°F10.9°C 67% 2.8 mph SSW4.5 kmh SSW 9.8 mph15.8 kmh 29.89 in1012.2 mb 0.00 in0.0 mm 0.00 in0.0 mm 0.00 in0.0 mm
10:15 AM 62.6°F17.0°C 51.5°F10.8°C 67% 3.1 mph SSW5.0 kmh SSW 9.8 mph15.8 kmh 29.89 in1012.2 mb 0.00 in0.0 mm 0.00 in0.0 mm 0.00 in0.0 mm
10:20 AM 63.7°F17.6°C 52.1°F11.2°C 66% 3.2 mph SSW5.1 kmh SSW 11.4 mph18.3 kmh 29.89 in1012.2 mb 0.00 in0.0 mm 0.00 in0.0 mm 0.00 in0.0 mm
10:25 AM 64.6°F18.1°C 52.1°F11.2°C 64% 4.3 mph S6.9 kmh S 15.2 mph24.5 kmh 29.89 in1012.2 mb 0.00 in0.0 mm 0.00 in0.0 mm 0.00 in0.0 mm
10:30 AM 65.1°F18.4°C 52.2°F11.2°C 63% 5.1 mph S8.2 kmh S 15.2 mph24.5 kmh 29.89 in1012.2 mb 0.00 in0.0 mm 0.00 in0.0 mm 0.00 in0.0 mm
10:35 AM 65.7°F18.7°C 52.3°F11.3°C 62% 5.0 mph S8.0 kmh S 14.5 mph23.3 kmh 29.90 in1012.5 mb 0.00 in0.0 mm 0.00 in0.0 mm 0.00 in0.0 mm
10:40 AM 65.7°F18.7°C 51.9°F11.1°C 61% 5.3 mph S8.5 kmh S 14.5 mph23.3 kmh 29.90 in1012.5 mb 0.00 in0.0 mm 0.00 in0.0 mm 0.00 in0.0 mm
10:45 AM 65.8°F18.8°C 52.5°F11.4°C 62% 5.9 mph S9.5 kmh S 13.6 mph21.9 kmh 29.89 in1012.2 mb 0.00 in0.0 mm 0.00 in0.0 mm 0.00 in0.0 mm
10:50 AM 66.4°F19.1°C 53.0°F11.7°C 62% 5.4 mph SSW8.7 kmh SSW 13.6 mph21.9 kmh 29.89 in1012.2 mb 0.00 in0.0 mm 0.00 in0.0 mm 0.00 in0.0 mm
10:55 AM 66.7°F19.3°C 52.4°F11.3°C 60% 5.1 mph SW8.2 kmh SW 16.8 mph27.0 kmh 29.88 in1011.9 mb 0.00 in0.0 mm 0.00 in0.0 mm 0.00 in0.0 mm
11:00 AM 66.9°F19.4°C 52.1°F11.2°C 59% 5.7 mph SW9.2 kmh SW 16.8 mph27.0 kmh 29.89 in1012.2 mb 0.00 in0.0 mm 0.00 in0.0 mm 0.00 in0.0 mm
11:05 AM 67.3°F19.6°C 52.0°F11.1°C 58% 5.0 mph SW8.0 kmh SW 16.8 mph27.0 kmh 29.89 in1012.2 mb 0.00 in0.0 mm 0.00 in0.0 mm 0.00 in0.0 mm
11:10 AM 67.5°F19.7°C 51.2°F10.7°C 56% 5.5 mph SSW8.9 kmh SSW 16.8 mph27.0 kmh 29.89 in1012.2 mb 0.00 in0.0 mm 0.00 in0.0 mm 0.00 in0.0 mm
11:15 AM 67.5°F19.7°C 50.8°F10.4°C 55% 6.8 mph SW10.9 kmh SW 19.0 mph30.6 kmh 29.89 in1012.2 mb 0.00 in0.0 mm 0.00 in0.0 mm 0.00 in0.0 mm
11:20 AM 67.5°F19.7°C 51.2°F10.7°C 56% 6.3 mph SSW10.1 kmh SSW 19.0 mph30.6 kmh 29.89 in1012.2 mb 0.00 in0.0 mm 0.00 in0.0 mm 0.00 in0.0 mm
11:25 AM 67.5°F19.7°C 50.8°F10.4°C 55% 6.3 mph S10.1 kmh S 17.4 mph28.0 kmh 29.89 in1012.2 mb 0.00 in0.0 mm 0.00 in0.0 mm 0.00 in0.0 mm
11:30 AM 67.5°F19.7°C 51.2°F10.7°C 56% 6.1 mph SSW9.8 kmh SSW 17.4 mph28.0 kmh 29.89 in1012.2 mb 0.00 in0.0 mm 0.00 in0.0 mm 0.00 in0.0 mm
11:35 AM 67.3°F19.6°C 52.0°F11.1°C 58% 4.9 mph SSW7.9 kmh SSW 14.5 mph23.3 kmh 29.90 in1012.5 mb 0.00 in0.0 mm 0.00 in0.0 mm 0.00 in0.0 mm
11:40 AM 67.1°F19.5°C 52.3°F11.3°C 59% 4.8 mph SW7.7 kmh SW 13.0 mph20.9 kmh 29.89 in1012.2 mb 0.00 in0.0 mm 0.00 in0.0 mm 0.00 in0.0 mm
11:45 AM 67.5°F19.7°C 52.2°F11.2°C 58% 4.8 mph WSW7.7 kmh WSW 13.0 mph20.9 kmh 29.88 in1011.9 mb 0.00 in0.0 mm 0.00 in0.0 mm 0.00 in0.0 mm
11:50 AM 67.5°F19.7°C 52.7°F11.5°C 59% 5.3 mph SW8.5 kmh SW 18.3 mph29.5 kmh 29.87 in1011.5 mb 0.00 in0.0 mm 0.00 in0.0 mm 0.00 in0.0 mm
11:55 AM 67.3°F19.6°C 52.9°F11.6°C 60% 5.2 mph S8.4 kmh S 18.3 mph29.5 kmh 29.87 in1011.5 mb 0.00 in0.0 mm 0.00 in0.0 mm 0.00 in0.0 mm
12:00 PM 67.1°F19.5°C 52.3°F11.3°C 59% 4.0 mph S6.4 kmh S 12.1 mph19.5 kmh 29.87 in1011.5 mb 0.00 in0.0 mm 0.00 in0.0 mm 0.00 in0.0 mm
12:05 PM 66.7°F19.3°C 51.5°F10.8°C 58% 5.2 mph S8.4 kmh S 15.9 mph25.6 kmh 29.88 in1011.9 mb 0.00 in0.0 mm 0.00 in0.0 mm 0.00 in0.0 mm
12:10 PM 66.4°F19.1°C 51.6°F10.9°C 59% 6.2 mph SSW10.0 kmh SSW 15.9 mph25.6 kmh 29.87 in1011.5 mb 0.00 in0.0 mm 0.00 in0.0 mm 0.00 in0.0 mm
12:15 PM 66.6°F19.2°C 50.9°F10.5°C 57% 5.6 mph S9.0 kmh S 15.2 mph24.5 kmh 29.87 in1011.5 mb 0.00 in0.0 mm 0.00 in0.0 mm 0.00 in0.0 mm
12:20 PM 66.6°F19.2°C 51.3°F10.7°C 58% 4.7 mph S7.6 kmh S 15.9 mph25.6 kmh 29.87 in1011.5 mb 0.00 in0.0 mm 0.00 in0.0 mm 0.00 in0.0 mm
12:25 PM 66.7°F19.3°C 50.1°F10.1°C 55% 4.9 mph S7.9 kmh S 15.9 mph25.6 kmh 29.86 in1011.2 mb 0.00 in0.0 mm 0.00 in0.0 mm 0.00 in0.0 mm
12:30 PM 66.7°F19.3°C 49.6°F9.8°C 54% 4.6 mph S7.4 kmh S 15.9 mph25.6 kmh 29.86 in1011.2 mb 0.00 in0.0 mm 0.00 in0.0 mm 0.00 in0.0 mm
12:35 PM 66.9°F19.4°C 48.7°F9.3°C 52% 3.8 mph SW6.1 kmh SW 12.1 mph19.5 kmh 29.86 in1011.2 mb 0.00 in0.0 mm 0.00 in0.0 mm 0.00 in0.0 mm
12:40 PM 67.6°F19.8°C 49.4°F9.7°C 52% 4.7 mph S7.6 kmh S 17.4 mph28.0 kmh 29.86 in1011.2 mb 0.00 in0.0 mm 0.00 in0.0 mm 0.00 in0.0 mm
12:45 PM 68.0°F20.0°C 50.3°F10.2°C 53% 5.8 mph S9.3 kmh S 27.3 mph43.9 kmh 29.85 in1010.8 mb 0.00 in0.0 mm 0.00 in0.0 mm 0.00 in0.0 mm
12:50 PM 68.0°F20.0°C 50.3°F10.2°C 53% 6.0 mph SSW9.7 kmh SSW 27.3 mph43.9 kmh 29.85 in1010.8 mb 0.00 in0.0 mm 0.00 in0.0 mm 0.00 in0.0 mm
12:55 PM 67.5°F19.7°C 50.3°F10.2°C 54% 6.4 mph SSW10.3 kmh SSW 18.3 mph29.5 kmh 29.85 in1010.8 mb 0.00 in0.0 mm 0.00 in0.0 mm 0.00 in0.0 mm
01:00 PM 66.9°F19.4°C 49.8°F9.9°C 54% 6.3 mph SW10.1 kmh SW 18.3 mph29.5 kmh 29.84 in1010.5 mb 0.00 in0.0 mm 0.00 in0.0 mm 0.00 in0.0 mm
01:05 PM 66.9°F19.4°C 50.7°F10.4°C 56% 5.9 mph SSW9.5 kmh SSW 15.9 mph25.6 kmh 29.83 in1010.2 mb 0.00 in0.0 mm 0.00 in0.0 mm 0.00 in0.0 mm
01:10 PM 66.7°F19.3°C 52.4°F11.3°C 60% 6.4 mph SSE10.3 kmh SSE 17.4 mph28.0 kmh 29.83 in1010.2 mb 0.00 in0.0 mm 0.00 in0.0 mm 0.00 in0.0 mm
01:15 PM 66.7°F19.3°C 52.9°F11.6°C 61% 7.0 mph SSE11.3 kmh SSE 18.3 mph29.5 kmh 29.84 in1010.5 mb 0.00 in0.0 mm 0.00 in0.0 mm 0.00 in0.0 mm
01:20 PM 66.7°F19.3°C 52.9°F11.6°C 61% 6.9 mph S11.1 kmh S 18.3 mph29.5 kmh 29.84 in1010.5 mb 0.00 in0.0 mm 0.00 in0.0 mm 0.00 in0.0 mm
01:25 PM 66.9°F19.4°C 53.5°F11.9°C 62% 5.6 mph S9.0 kmh S 15.2 mph24.5 kmh 29.84 in1010.5 mb 0.00 in0.0 mm 0.00 in0.0 mm 0.00 in0.0 mm
01:30 PM 67.5°F19.7°C 54.4°F12.4°C 63% 4.7 mph S7.6 kmh S 15.2 mph24.5 kmh 29.85 in1010.8 mb 0.00 in0.0 mm 0.00 in0.0 mm 0.00 in0.0 mm
01:35 PM 67.6°F19.8°C 54.2°F12.3°C 62% 5.4 mph S8.7 kmh S 12.1 mph19.5 kmh 29.85 in1010.8 mb 0.00 in0.0 mm 0.00 in0.0 mm 0.00 in0.0 mm
01:40 PM 67.6°F19.8°C 54.2°F12.3°C 62% 5.2 mph S8.4 kmh S 12.1 mph19.5 kmh 29.85 in1010.8 mb 0.00 in0.0 mm 0.00 in0.0 mm 0.00 in0.0 mm
01:45 PM 67.1°F19.5°C 54.1°F12.3°C 63% 4.4 mph S7.1 kmh S 12.1 mph19.5 kmh 29.85 in1010.8 mb 0.00 in0.0 mm 0.00 in0.0 mm 0.00 in0.0 mm
01:50 PM 66.9°F19.4°C 54.4°F12.4°C 64% 4.3 mph SSE6.9 kmh SSE 12.1 mph19.5 kmh 29.85 in1010.8 mb 0.00 in0.0 mm 0.00 in0.0 mm 0.00 in0.0 mm
01:55 PM 66.4°F19.1°C 53.9°F12.2°C 64% 4.3 mph SSE6.9 kmh SSE 12.1 mph19.5 kmh 29.84 in1010.5 mb 0.00 in0.0 mm 0.00 in0.0 mm 0.00 in0.0 mm
02:00 PM 66.0°F18.9°C 53.5°F11.9°C 64% 4.8 mph SSE7.7 kmh SSE 15.2 mph24.5 kmh 29.84 in1010.5 mb 0.00 in0.0 mm 0.00 in0.0 mm 0.00 in0.0 mm
02:05 PM 65.8°F18.8°C 53.8°F12.1°C 65% 4.4 mph SSE7.1 kmh SSE 15.2 mph24.5 kmh 29.84 in1010.5 mb 0.00 in0.0 mm 0.00 in0.0 mm 0.00 in0.0 mm
02:10 PM 65.8°F18.8°C 53.8°F12.1°C 65% 4.2 mph S6.8 kmh S 12.1 mph19.5 kmh 29.84 in1010.5 mb 0.00 in0.0 mm 0.00 in0.0 mm 0.00 in0.0 mm
02:15 PM 66.2°F19.0°C 53.7°F12.1°C 64% 4.0 mph S6.4 kmh S 9.8 mph15.8 kmh 29.84 in1010.5 mb 0.00 in0.0 mm 0.00 in0.0 mm 0.00 in0.0 mm
02:20 PM 66.4°F19.1°C 53.9°F12.2°C 64% 3.6 mph S5.8 kmh S 9.8 mph15.8 kmh 29.83 in1010.2 mb 0.00 in0.0 mm 0.00 in0.0 mm 0.00 in0.0 mm
02:25 PM 66.4°F19.1°C 53.9°F12.2°C 64% 4.2 mph S6.8 kmh S 15.2 mph24.5 kmh 29.83 in1010.2 mb 0.00 in0.0 mm 0.00 in0.0 mm 0.00 in0.0 mm
02:30 PM 66.2°F19.0°C 52.8°F11.6°C 62% 5.2 mph S8.4 kmh S 16.8 mph27.0 kmh 29.83 in1010.2 mb 0.00 in0.0 mm 0.00 in0.0 mm 0.00 in0.0 mm
02:35 PM 66.4°F19.1°C 53.4°F11.9°C 63% 5.8 mph SSE9.3 kmh SSE 16.8 mph27.0 kmh 29.82 in1009.8 mb 0.00 in0.0 mm 0.00 in0.0 mm 0.00 in0.0 mm
02:40 PM 66.2°F19.0°C 53.7°F12.1°C 64% 5.3 mph S8.5 kmh S 13.6 mph21.9 kmh 29.82 in1009.8 mb 0.00 in0.0 mm 0.00 in0.0 mm 0.00 in0.0 mm
02:45 PM 66.4°F19.1°C 53.0°F11.7°C 62% 4.6 mph S7.4 kmh S 15.9 mph25.6 kmh 29.81 in1009.5 mb 0.00 in0.0 mm 0.00 in0.0 mm 0.00 in0.0 mm
02:50 PM 66.4°F19.1°C 52.5°F11.4°C 61% 5.1 mph SSE8.2 kmh SSE 15.9 mph25.6 kmh 29.81 in1009.5 mb 0.00 in0.0 mm 0.00 in0.0 mm 0.00 in0.0 mm
02:55 PM 66.7°F19.3°C 53.3°F11.8°C 62% 5.4 mph SSE8.7 kmh SSE 14.5 mph23.3 kmh 29.81 in1009.5 mb 0.00 in0.0 mm 0.00 in0.0 mm 0.00 in0.0 mm
03:00 PM 66.6°F19.2°C 53.6°F12.0°C 63% 5.6 mph S9.0 kmh S 16.8 mph27.0 kmh 29.82 in1009.8 mb 0.00 in0.0 mm 0.00 in0.0 mm 0.00 in0.0 mm
03:05 PM 66.4°F19.1°C 54.3°F12.4°C 65% 5.0 mph SSE8.0 kmh SSE 16.8 mph27.0 kmh 29.82 in1009.8 mb 0.00 in0.0 mm 0.00 in0.0 mm 0.00 in0.0 mm
03:10 PM 66.4°F19.1°C 54.3°F12.4°C 65% 3.5 mph SSE5.6 kmh SSE 10.7 mph17.2 kmh 29.82 in1009.8 mb 0.00 in0.0 mm 0.00 in0.0 mm 0.00 in0.0 mm
03:15 PM 66.6°F19.2°C 54.5°F12.5°C 65% 3.3 mph S5.3 kmh S 13.6 mph21.9 kmh 29.82 in1009.8 mb 0.00 in0.0 mm 0.00 in0.0 mm 0.00 in0.0 mm
03:20 PM 66.4°F19.1°C 54.7°F12.6°C 66% 4.2 mph S6.8 kmh S 13.6 mph21.9 kmh 29.82 in1009.8 mb 0.00 in0.0 mm 0.00 in0.0 mm 0.00 in0.0 mm
03:25 PM 66.4°F19.1°C 55.1°F12.8°C 67% 4.1 mph S6.6 kmh S 13.6 mph21.9 kmh 29.82 in1009.8 mb 0.00 in0.0 mm 0.00 in0.0 mm 0.00 in0.0 mm
03:30 PM 66.2°F19.0°C 55.3°F12.9°C 68% 5.2 mph S8.4 kmh S 18.3 mph29.5 kmh 29.82 in1009.8 mb 0.00 in0.0 mm 0.00 in0.0 mm 0.00 in0.0 mm
03:35 PM 66.2°F19.0°C 55.3°F12.9°C 68% 7.2 mph S11.6 kmh S 18.3 mph29.5 kmh 29.81 in1009.5 mb 0.00 in0.0 mm 0.00 in0.0 mm 0.00 in0.0 mm
03:40 PM 65.8°F18.8°C 55.4°F13.0°C 69% 6.1 mph SSW9.8 kmh SSW 15.9 mph25.6 kmh 29.81 in1009.5 mb 0.00 in0.0 mm 0.00 in0.0 mm 0.00 in0.0 mm
03:45 PM 65.7°F18.7°C 55.2°F12.9°C 69% 6.1 mph S9.8 kmh S 18.3 mph29.5 kmh 29.81 in1009.5 mb 0.00 in0.0 mm 0.00 in0.0 mm 0.00 in0.0 mm
03:50 PM 65.5°F18.6°C 55.1°F12.8°C 69% 6.8 mph S10.9 kmh S 18.3 mph29.5 kmh 29.80 in1009.1 mb 0.00 in0.0 mm 0.00 in0.0 mm 0.00 in0.0 mm
03:55 PM 65.3°F18.5°C 54.9°F12.7°C 69% 5.6 mph S9.0 kmh S 14.5 mph23.3 kmh 29.81 in1009.5 mb 0.00 in0.0 mm 0.00 in0.0 mm 0.00 in0.0 mm
04:00 PM 65.3°F18.5°C 55.3°F12.9°C 70% 5.5 mph S8.9 kmh S 19.0 mph30.6 kmh 29.81 in1009.5 mb 0.00 in0.0 mm 0.00 in0.0 mm 0.00 in0.0 mm
04:05 PM 65.1°F18.4°C 55.5°F13.1°C 71% 5.8 mph S9.3 kmh S 21.3 mph34.3 kmh 29.82 in1009.8 mb 0.00 in0.0 mm 0.00 in0.0 mm 0.00 in0.0 mm
04:10 PM 64.6°F18.1°C 56.1°F13.4°C 74% 6.0 mph S9.7 kmh S 21.3 mph34.3 kmh 29.82 in1009.8 mb 0.00 in0.0 mm 0.00 in0.0 mm 0.00 in0.0 mm
04:15 PM 63.9°F17.7°C 56.5°F13.6°C 77% 4.7 mph SSW7.6 kmh SSW 15.9 mph25.6 kmh 29.82 in1009.8 mb 0.00 in0.0 mm 0.00 in0.0 mm 0.00 in0.0 mm
04:20 PM 63.3°F17.4°C 57.1°F13.9°C 80% 3.0 mph SSW4.8 kmh SSW 12.1 mph19.5 kmh 29.81 in1009.5 mb 0.00 in0.0 mm 0.00 in0.0 mm 0.00 in0.0 mm
04:25 PM 63.0°F17.2°C 57.1°F13.9°C 81% 3.1 mph SW5.0 kmh SW 10.7 mph17.2 kmh 29.81 in1009.5 mb 0.00 in0.0 mm 0.00 in0.0 mm 0.00 in0.0 mm
04:30 PM 63.0°F17.2°C 57.1°F13.9°C 81% 4.0 mph SW6.4 kmh SW 10.7 mph17.2 kmh 29.81 in1009.5 mb 0.00 in0.0 mm 0.00 in0.0 mm 0.00 in0.0 mm
04:35 PM 63.0°F17.2°C 56.7°F13.7°C 80% 4.3 mph S6.9 kmh S 13.6 mph21.9 kmh 29.81 in1009.5 mb 0.00 in0.0 mm 0.00 in0.0 mm 0.00 in0.0 mm
04:40 PM 63.1°F17.3°C 56.9°F13.8°C 80% 5.8 mph S9.3 kmh S 20.6 mph33.2 kmh 29.81 in1009.5 mb 0.00 in0.0 mm 0.00 in0.0 mm 0.00 in0.0 mm
04:45 PM 63.1°F17.3°C 56.5°F13.6°C 79% 5.9 mph S9.5 kmh S 20.6 mph33.2 kmh 29.81 in1009.5 mb 0.00 in0.0 mm 0.00 in0.0 mm 0.00 in0.0 mm
04:50 PM 63.3°F17.4°C 56.7°F13.7°C 79% 4.1 mph SSW6.6 kmh SSW 13.6 mph21.9 kmh 29.81 in1009.5 mb 0.00 in0.0 mm 0.00 in0.0 mm 0.00 in0.0 mm
04:55 PM 63.3°F17.4°C 56.7°F13.7°C 79% 4.1 mph S6.6 kmh S 13.0 mph20.9 kmh 29.81 in1009.5 mb 0.00 in0.0 mm 0.00 in0.0 mm 0.00 in0.0 mm
05:00 PM 63.3°F17.4°C 56.7°F13.7°C 79% 4.2 mph S6.8 kmh S 13.0 mph20.9 kmh 29.81 in1009.5 mb 0.00 in0.0 mm 0.00 in0.0 mm 0.00 in0.0 mm
05:05 PM 63.1°F17.3°C 56.2°F13.4°C 78% 3.1 mph S5.0 kmh S 11.4 mph18.3 kmh 29.80 in1009.1 mb 0.00 in0.0 mm 0.00 in0.0 mm 0.00 in0.0 mm
05:10 PM 63.3°F17.4°C 56.4°F13.6°C 78% 2.1 mph SSE3.4 kmh SSE 7.6 mph12.2 kmh 29.81 in1009.5 mb 0.00 in0.0 mm 0.00 in0.0 mm 0.00 in0.0 mm
05:15 PM 63.1°F17.3°C 56.2°F13.4°C 78% 2.2 mph SSE3.5 kmh SSE 9.2 mph14.8 kmh 29.82 in1009.8 mb 0.00 in0.0 mm 0.00 in0.0 mm 0.00 in0.0 mm
05:20 PM 63.1°F17.3°C 55.8°F13.2°C 77% 2.8 mph S4.5 kmh S 9.8 mph15.8 kmh 29.82 in1009.8 mb 0.00 in0.0 mm 0.00 in0.0 mm 0.00 in0.0 mm
05:25 PM 63.1°F17.3°C 56.2°F13.4°C 78% 3.7 mph S6.0 kmh S 15.9 mph25.6 kmh 29.82 in1009.8 mb 0.00 in0.0 mm 0.00 in0.0 mm 0.00 in0.0 mm
05:30 PM 63.0°F17.2°C 56.0°F13.3°C 78% 4.8 mph S7.7 kmh S 17.4 mph28.0 kmh 29.82 in1009.8 mb 0.00 in0.0 mm 0.00 in0.0 mm 0.00 in0.0 mm
05:35 PM 62.6°F17.0°C 55.7°F13.2°C 78% 5.1 mph S8.2 kmh S 17.4 mph28.0 kmh 29.82 in1009.8 mb 0.00 in0.0 mm 0.00 in0.0 mm 0.00 in0.0 mm
05:40 PM 62.2°F16.8°C 55.7°F13.2°C 79% 5.5 mph S8.9 kmh S 19.7 mph31.7 kmh 29.82 in1009.8 mb 0.00 in0.0 mm 0.00 in0.0 mm 0.00 in0.0 mm
05:45 PM 61.9°F16.6°C 55.7°F13.2°C 80% 5.6 mph S9.0 kmh S 19.7 mph31.7 kmh 29.82 in1009.8 mb 0.00 in0.0 mm 0.00 in0.0 mm 0.00 in0.0 mm
05:50 PM 61.5°F16.4°C 56.0°F13.3°C 82% 5.8 mph S9.3 kmh S 19.7 mph31.7 kmh 29.82 in1009.8 mb 0.00 in0.0 mm 0.00 in0.0 mm 0.00 in0.0 mm
05:55 PM 61.3°F16.3°C 56.1°F13.4°C 83% 5.5 mph S8.9 kmh S 15.9 mph25.6 kmh 29.82 in1009.8 mb 0.00 in0.0 mm 0.00 in0.0 mm 0.00 in0.0 mm
06:00 PM 61.2°F16.2°C 56.3°F13.5°C 84% 5.3 mph SSE8.5 kmh SSE 15.2 mph24.5 kmh 29.83 in1010.2 mb 0.00 in0.0 mm 0.00 in0.0 mm 0.00 in0.0 mm
06:05 PM 60.8°F16.0°C 55.9°F13.3°C 84% 5.0 mph S8.0 kmh S 15.2 mph24.5 kmh 29.82 in1009.8 mb 0.00 in0.0 mm 0.00 in0.0 mm 0.00 in0.0 mm
06:10 PM 60.6°F15.9°C 56.1°F13.4°C 85% 4.4 mph S7.1 kmh S 13.6 mph21.9 kmh 29.82 in1009.8 mb 0.00 in0.0 mm 0.00 in0.0 mm 0.00 in0.0 mm
06:15 PM 60.3°F15.7°C 56.1°F13.4°C 86% 4.6 mph S7.4 kmh S 13.6 mph21.9 kmh 29.81 in1009.5 mb 0.00 in0.0 mm 0.00 in0.0 mm 0.00 in0.0 mm
06:20 PM 60.1°F15.6°C 55.9°F13.3°C 86% 3.9 mph S6.3 kmh S 12.1 mph19.5 kmh 29.81 in1009.5 mb 0.00 in0.0 mm 0.00 in0.0 mm 0.00 in0.0 mm
06:25 PM 60.1°F15.6°C 55.6°F13.1°C 85% 3.2 mph SW5.1 kmh SW 12.1 mph19.5 kmh 29.80 in1009.1 mb 0.00 in0.0 mm 0.00 in0.0 mm 0.00 in0.0 mm
06:30 PM 59.9°F15.5°C 55.4°F13.0°C 85% 2.6 mph WSW4.2 kmh WSW 12.1 mph19.5 kmh 29.79 in1008.8 mb 0.00 in0.0 mm 0.00 in0.0 mm 0.00 in0.0 mm
06:35 PM 59.9°F15.5°C 55.4°F13.0°C 85% 2.8 mph SW4.5 kmh SW 10.7 mph17.2 kmh 29.78 in1008.5 mb 0.00 in0.0 mm 0.00 in0.0 mm 0.00 in0.0 mm
06:40 PM 59.9°F15.5°C 55.1°F12.8°C 84% 3.6 mph W5.8 kmh W 10.7 mph17.2 kmh 29.80 in1009.1 mb 0.00 in0.0 mm 0.00 in0.0 mm 0.00 in0.0 mm
06:45 PM 59.9°F15.5°C 55.1°F12.8°C 84% 4.2 mph W6.8 kmh W 11.4 mph18.3 kmh 29.82 in1009.8 mb 0.00 in0.0 mm 0.00 in0.0 mm 0.00 in0.0 mm
06:50 PM 60.1°F15.6°C 55.2°F12.9°C 84% 3.3 mph W5.3 kmh W 11.4 mph18.3 kmh 29.82 in1009.8 mb 0.00 in0.0 mm 0.00 in0.0 mm 0.00 in0.0 mm
06:55 PM 60.3°F15.7°C 55.1°F12.8°C 83% 3.2 mph WNW5.1 kmh WNW 9.2 mph14.8 kmh 29.81 in1009.5 mb 0.00 in0.0 mm 0.00 in0.0 mm 0.00 in0.0 mm
07:00 PM 60.4°F15.8°C 54.6°F12.6°C 81% 4.4 mph NW7.1 kmh NW 19.0 mph30.6 kmh 29.80 in1009.1 mb 0.00 in0.0 mm 0.00 in0.0 mm 0.00 in0.0 mm
07:05 PM 60.8°F16.0°C 54.6°F12.6°C 80% 3.3 mph S5.3 kmh S 19.0 mph30.6 kmh 29.81 in1009.5 mb 0.00 in0.0 mm 0.00 in0.0 mm 0.00 in0.0 mm
07:10 PM 60.8°F16.0°C 54.6°F12.6°C 80% 3.7 mph WNW6.0 kmh WNW 9.8 mph15.8 kmh 29.81 in1009.5 mb 0.00 in0.0 mm 0.00 in0.0 mm 0.00 in0.0 mm
07:15 PM 60.8°F16.0°C 54.3°F12.4°C 79% 4.2 mph NW6.8 kmh NW 9.8 mph15.8 kmh 29.81 in1009.5 mb 0.00 in0.0 mm 0.00 in0.0 mm 0.00 in0.0 mm
07:20 PM 61.0°F16.1°C 54.1°F12.3°C 78% 3.5 mph NW5.6 kmh NW 9.2 mph14.8 kmh 29.80 in1009.1 mb 0.00 in0.0 mm 0.00 in0.0 mm 0.00 in0.0 mm
07:25 PM 60.8°F16.0°C 53.9°F12.2°C 78% 2.8 mph NW4.5 kmh NW 7.6 mph12.2 kmh 29.80 in1009.1 mb 0.00 in0.0 mm 0.00 in0.0 mm 0.00 in0.0 mm
07:30 PM 60.8°F16.0°C 53.6°F12.0°C 77% 2.6 mph NW4.2 kmh NW 7.6 mph12.2 kmh 29.81 in1009.5 mb 0.00 in0.0 mm 0.00 in0.0 mm 0.00 in0.0 mm
07:35 PM 60.6°F15.9°C 53.7°F12.1°C 78% 2.4 mph WNW3.9 kmh WNW 7.6 mph12.2 kmh 29.81 in1009.5 mb 0.00 in0.0 mm 0.00 in0.0 mm 0.00 in0.0 mm
07:40 PM 60.6°F15.9°C 53.7°F12.1°C 78% 1.8 mph WNW2.9 kmh WNW 5.4 mph8.7 kmh 29.81 in1009.5 mb 0.00 in0.0 mm 0.00 in0.0 mm 0.00 in0.0 mm
07:45 PM 60.6°F15.9°C 53.4°F11.9°C 77% 1.8 mph W2.9 kmh W 5.4 mph8.7 kmh 29.82 in1009.8 mb 0.00 in0.0 mm 0.00 in0.0 mm 0.00 in0.0 mm
07:50 PM 60.8°F16.0°C 53.2°F11.8°C 76% 2.6 mph W4.2 kmh W 14.5 mph23.3 kmh 29.82 in1009.8 mb 0.00 in0.0 mm 0.00 in0.0 mm 0.00 in0.0 mm
07:55 PM 61.0°F16.1°C 53.4°F11.9°C 76% 3.5 mph WSW5.6 kmh WSW 14.5 mph23.3 kmh 29.82 in1009.8 mb 0.00 in0.0 mm 0.00 in0.0 mm 0.00 in0.0 mm
08:00 PM 61.0°F16.1°C 53.0°F11.7°C 75% 2.7 mph SW4.3 kmh SW 8.3 mph13.4 kmh 29.82 in1009.8 mb 0.00 in0.0 mm 0.00 in0.0 mm 0.00 in0.0 mm
08:05 PM 61.0°F16.1°C 53.0°F11.7°C 75% 1.3 mph WSW2.1 kmh WSW 6.0 mph9.7 kmh 29.82 in1009.8 mb 0.00 in0.0 mm 0.00 in0.0 mm 0.00 in0.0 mm
08:10 PM 61.2°F16.2°C 53.2°F11.8°C 75% 2.2 mph NNE3.5 kmh NNE 7.6 mph12.2 kmh 29.82 in1009.8 mb 0.00 in0.0 mm 0.00 in0.0 mm 0.00 in0.0 mm
08:15 PM 61.0°F16.1°C 53.4°F11.9°C 76% 3.0 mph NW4.8 kmh NW 7.6 mph12.2 kmh 29.81 in1009.5 mb 0.00 in0.0 mm 0.00 in0.0 mm 0.00 in0.0 mm
08:20 PM 61.2°F16.2°C 53.6°F12.0°C 76% 2.7 mph WSW4.3 kmh WSW 8.3 mph13.4 kmh 29.81 in1009.5 mb 0.00 in0.0 mm 0.00 in0.0 mm 0.00 in0.0 mm
08:25 PM 61.2°F16.2°C 53.6°F12.0°C 76% 2.7 mph SSW4.3 kmh SSW 8.3 mph13.4 kmh 29.80 in1009.1 mb 0.00 in0.0 mm 0.00 in0.0 mm 0.00 in0.0 mm
08:30 PM 61.0°F16.1°C 53.4°F11.9°C 76% 1.9 mph SSW3.1 kmh SSW 8.3 mph13.4 kmh 29.80 in1009.1 mb 0.00 in0.0 mm 0.00 in0.0 mm 0.00 in0.0 mm
08:35 PM 61.2°F16.2°C 53.6°F12.0°C 76% 3.3 mph SSW5.3 kmh SSW 17.4 mph28.0 kmh 29.80 in1009.1 mb 0.00 in0.0 mm 0.00 in0.0 mm 0.00 in0.0 mm
08:40 PM 61.7°F16.5°C 54.1°F12.3°C 76% 5.2 mph SW8.4 kmh SW 17.4 mph28.0 kmh 29.79 in1008.8 mb 0.00 in0.0 mm 0.00 in0.0 mm 0.00 in0.0 mm
08:45 PM 61.5°F16.4°C 53.9°F12.2°C 76% 3.6 mph SW5.8 kmh SW 15.2 mph24.5 kmh 29.80 in1009.1 mb 0.00 in0.0 mm 0.00 in0.0 mm 0.00 in0.0 mm
08:50 PM 61.3°F16.3°C 54.1°F12.3°C 77% 1.9 mph SW3.1 kmh SW 7.6 mph12.2 kmh 29.80 in1009.1 mb 0.00 in0.0 mm 0.00 in0.0 mm 0.00 in0.0 mm
08:55 PM 61.2°F16.2°C 54.3°F12.4°C 78% 1.9 mph WSW3.1 kmh WSW 7.6 mph12.2 kmh 29.79 in1008.8 mb 0.00 in0.0 mm 0.00 in0.0 mm 0.00 in0.0 mm
09:00 PM 61.2°F16.2°C 54.3°F12.4°C 78% 1.8 mph SSW2.9 kmh SSW 6.0 mph9.7 kmh 29.79 in1008.8 mb 0.00 in0.0 mm 0.00 in0.0 mm 0.00 in0.0 mm
09:05 PM 61.3°F16.3°C 54.4°F12.4°C 78% 2.3 mph S3.7 kmh S 7.6 mph12.2 kmh 29.80 in1009.1 mb 0.00 in0.0 mm 0.00 in0.0 mm 0.00 in0.0 mm
09:10 PM 61.5°F16.4°C 54.6°F12.6°C 78% 2.1 mph SW3.4 kmh SW 7.6 mph12.2 kmh 29.80 in1009.1 mb 0.00 in0.0 mm 0.00 in0.0 mm 0.00 in0.0 mm
09:15 PM 61.7°F16.5°C 54.8°F12.7°C 78% 2.1 mph S3.4 kmh S 16.8 mph27.0 kmh 29.80 in1009.1 mb 0.00 in0.0 mm 0.00 in0.0 mm 0.00 in0.0 mm
09:20 PM 62.1°F16.7°C 54.8°F12.7°C 77% 3.9 mph SE6.3 kmh SE 16.8 mph27.0 kmh 29.80 in1009.1 mb 0.00 in0.0 mm 0.00 in0.0 mm 0.00 in0.0 mm
09:25 PM 62.4°F16.9°C 54.8°F12.7°C 76% 4.7 mph SSE7.6 kmh SSE 13.6 mph21.9 kmh 29.80 in1009.1 mb 0.00 in0.0 mm 0.00 in0.0 mm 0.00 in0.0 mm
09:30 PM 62.4°F16.9°C 55.1°F12.8°C 77% 4.8 mph S7.7 kmh S 13.6 mph21.9 kmh 29.80 in1009.1 mb 0.00 in0.0 mm 0.00 in0.0 mm 0.00 in0.0 mm
09:35 PM 62.2°F16.8°C 55.0°F12.8°C 77% 3.9 mph SSW6.3 kmh SSW 13.6 mph21.9 kmh 29.80 in1009.1 mb 0.00 in0.0 mm 0.00 in0.0 mm 0.00 in0.0 mm
09:40 PM 62.4°F16.9°C 55.8°F13.2°C 79% 3.5 mph SSW5.6 kmh SSW 11.4 mph18.3 kmh 29.79 in1008.8 mb 0.00 in0.0 mm 0.00 in0.0 mm 0.00 in0.0 mm
09:45 PM 62.4°F16.9°C 55.8°F13.2°C 79% 5.0 mph S8.0 kmh S 12.1 mph19.5 kmh 29.79 in1008.8 mb 0.00 in0.0 mm 0.00 in0.0 mm 0.00 in0.0 mm
09:50 PM 62.6°F17.0°C 56.0°F13.3°C 79% 5.4 mph SSE8.7 kmh SSE 16.8 mph27.0 kmh 29.79 in1008.8 mb 0.00 in0.0 mm 0.00 in0.0 mm 0.00 in0.0 mm
09:55 PM 63.0°F17.2°C 56.4°F13.6°C 79% 6.8 mph S10.9 kmh S 18.3 mph29.5 kmh 29.79 in1008.8 mb 0.00 in0.0 mm 0.00 in0.0 mm 0.00 in0.0 mm
10:00 PM 63.1°F17.3°C 56.5°F13.6°C 79% 8.0 mph S12.9 kmh S 19.7 mph31.7 kmh 29.80 in1009.1 mb 0.00 in0.0 mm 0.00 in0.0 mm 0.00 in0.0 mm
10:05 PM 63.1°F17.3°C 55.8°F13.2°C 77% 7.7 mph S12.4 kmh S 19.7 mph31.7 kmh 29.80 in1009.1 mb 0.00 in0.0 mm 0.00 in0.0 mm 0.00 in0.0 mm
10:10 PM 63.3°F17.4°C 56.0°F13.3°C 77% 6.1 mph SSE9.8 kmh SSE 19.7 mph31.7 kmh 29.80 in1009.1 mb 0.00 in0.0 mm 0.00 in0.0 mm 0.00 in0.0 mm
10:15 PM 63.3°F17.4°C 56.0°F13.3°C 77% 5.5 mph SE8.9 kmh SE 13.0 mph20.9 kmh 29.80 in1009.1 mb 0.00 in0.0 mm 0.00 in0.0 mm 0.00 in0.0 mm
10:20 PM 63.3°F17.4°C 56.0°F13.3°C 77% 5.9 mph S9.5 kmh S 18.3 mph29.5 kmh 29.80 in1009.1 mb 0.00 in0.0 mm 0.00 in0.0 mm 0.00 in0.0 mm
10:25 PM 63.5°F17.5°C 56.2°F13.4°C 77% 6.2 mph S10.0 kmh S 21.3 mph34.3 kmh 29.80 in1009.1 mb 0.00 in0.0 mm 0.00 in0.0 mm 0.00 in0.0 mm
10:30 PM 63.3°F17.4°C 56.0°F13.3°C 77% 6.4 mph S10.3 kmh S 21.3 mph34.3 kmh 29.80 in1009.1 mb 0.00 in0.0 mm 0.00 in0.0 mm 0.00 in0.0 mm
10:35 PM 63.1°F17.3°C 55.8°F13.2°C 77% 6.8 mph S10.9 kmh S 16.8 mph27.0 kmh 29.80 in1009.1 mb 0.00 in0.0 mm 0.00 in0.0 mm 0.00 in0.0 mm
10:40 PM 63.3°F17.4°C 56.0°F13.3°C 77% 6.7 mph S10.8 kmh S 16.8 mph27.0 kmh 29.80 in1009.1 mb 0.00 in0.0 mm 0.00 in0.0 mm 0.00 in0.0 mm
10:45 PM 63.3°F17.4°C 56.0°F13.3°C 77% 5.6 mph S9.0 kmh S 13.6 mph21.9 kmh 29.80 in1009.1 mb 0.00 in0.0 mm 0.00 in0.0 mm 0.00 in0.0 mm
10:50 PM 63.3°F17.4°C 56.0°F13.3°C 77% 4.6 mph SSE7.4 kmh SSE 13.6 mph21.9 kmh 29.80 in1009.1 mb 0.00 in0.0 mm 0.00 in0.0 mm 0.00 in0.0 mm
10:55 PM 63.3°F17.4°C 56.0°F13.3°C 77% 4.1 mph SSE6.6 kmh SSE 12.1 mph19.5 kmh 29.81 in1009.5 mb 0.00 in0.0 mm 0.00 in0.0 mm 0.00 in0.0 mm
11:00 PM 63.3°F17.4°C 56.0°F13.3°C 77% 5.0 mph SSE8.0 kmh SSE 13.6 mph21.9 kmh 29.81 in1009.5 mb 0.00 in0.0 mm 0.00 in0.0 mm 0.00 in0.0 mm
11:05 PM 63.3°F17.4°C 56.0°F13.3°C 77% 5.9 mph SE9.5 kmh SE 17.4 mph28.0 kmh 29.81 in1009.5 mb 0.00 in0.0 mm 0.00 in0.0 mm 0.00 in0.0 mm
11:10 PM 63.3°F17.4°C 56.0°F13.3°C 77% 5.8 mph S9.3 kmh S 17.4 mph28.0 kmh 29.81 in1009.5 mb 0.00 in0.0 mm 0.00 in0.0 mm 0.00 in0.0 mm
11:15 PM 63.3°F17.4°C 56.0°F13.3°C 77% 5.5 mph SW8.9 kmh SW 19.0 mph30.6 kmh 29.81 in1009.5 mb 0.00 in0.0 mm 0.00 in0.0 mm 0.00 in0.0 mm
11:20 PM 63.1°F17.3°C 56.2°F13.4°C 78% 5.5 mph SSW8.9 kmh SSW 19.0 mph30.6 kmh 29.81 in1009.5 mb 0.00 in0.0 mm 0.00 in0.0 mm 0.00 in0.0 mm
11:25 PM 63.1°F17.3°C 56.2°F13.4°C 78% 5.0 mph SSW8.0 kmh SSW 18.3 mph29.5 kmh 29.80 in1009.1 mb 0.00 in0.0 mm 0.00 in0.0 mm 0.00 in0.0 mm
11:30 PM 63.1°F17.3°C 56.2°F13.4°C 78% 4.3 mph S6.9 kmh S 13.0 mph20.9 kmh 29.81 in1009.5 mb 0.00 in0.0 mm 0.00 in0.0 mm 0.00 in0.0 mm
11:35 PM 63.1°F17.3°C 56.2°F13.4°C 78% 4.4 mph SSE7.1 kmh SSE 13.6 mph21.9 kmh 29.81 in1009.5 mb 0.00 in0.0 mm 0.00 in0.0 mm 0.00 in0.0 mm
11:40 PM 63.1°F17.3°C 55.8°F13.2°C 77% 4.6 mph S7.4 kmh S 13.6 mph21.9 kmh 29.81 in1009.5 mb 0.00 in0.0 mm 0.00 in0.0 mm 0.00 in0.0 mm
11:45 PM 63.1°F17.3°C 55.8°F13.2°C 77% 5.0 mph S8.0 kmh S 13.0 mph20.9 kmh 29.80 in1009.1 mb 0.00 in0.0 mm 0.00 in0.0 mm 0.00 in0.0 mm
11:50 PM 63.1°F17.3°C 55.8°F13.2°C 77% 5.4 mph S8.7 kmh S 19.0 mph30.6 kmh 29.81 in1009.5 mb 0.00 in0.0 mm 0.00 in0.0 mm 0.00 in0.0 mm
11:55 PM 63.1°F17.3°C 55.8°F13.2°C 77% 4.3 mph S6.9 kmh S 19.0 mph30.6 kmh 29.80 in1009.1 mb 0.00 in0.0 mm 0.00 in0.0 mm 0.00 in0.0 mm